createdAt,value
2023-04-16T00:00:50.293Z,101019.88
2023-04-16T00:05:55.995Z,101027.25
2023-04-16T00:10:58.945Z,101032.59
2023-04-16T00:16:01.941Z,101039.19
2023-04-16T00:21:05.202Z,100999.84
2023-04-16T00:26:08.915Z,101027.78
2023-04-16T00:31:11.953Z,101031.56
2023-04-16T00:36:17.622Z,101024.78
2023-04-16T00:41:20.626Z,101032.81
2023-04-16T00:46:24.928Z,101030.72
2023-04-16T00:51:27.982Z,101022.69
2023-04-16T00:56:31.260Z,100993.69
2023-04-16T01:01:33.908Z,101032.84
2023-04-16T01:06:36.548Z,100998.59
2023-04-16T01:11:40.050Z,101029.44
2023-04-16T01:16:43.402Z,101025.31
2023-04-16T01:21:46.840Z,101007.59
2023-04-16T01:26:49.385Z,101019.72
2023-04-16T01:31:52.278Z,101020.22
2023-04-16T01:37:04.495Z,101015.34
2023-04-16T01:42:07.182Z,101017.66
2023-04-16T01:47:10.152Z,101005.25
2023-04-16T01:52:13.492Z,101020.25
2023-04-16T01:57:16.659Z,101018.66
2023-04-16T02:02:20.190Z,101022.69
2023-04-16T02:07:23.522Z,101006.78
2023-04-16T02:12:26.976Z,101021.69
2023-04-16T02:17:30.193Z,101018.03
2023-04-16T02:22:44.403Z,101027.44
2023-04-16T02:27:51.043Z,101023.84
2023-04-16T02:33:21.996Z,101021.59
2023-04-16T02:38:39.791Z,101000.03
2023-04-16T02:43:46.528Z,101015.91
2023-04-16T02:48:49.246Z,101036.09
2023-04-16T02:54:01.247Z,101026.72
2023-04-16T02:59:04.276Z,101039.84
2023-04-16T03:04:07.754Z,101036.97
2023-04-16T03:09:11.130Z,101021.66
2023-04-16T03:14:27.163Z,101031.06
2023-04-16T03:19:32.130Z,101037.41
2023-04-16T03:24:34.991Z,101019.50
2023-04-16T03:29:38.876Z,101021.06
2023-04-16T03:34:43.948Z,101033.03
2023-04-16T03:39:47.237Z,101035.00
2023-04-16T03:44:51.578Z,101036.22
2023-04-16T03:49:54.496Z,101023.47
2023-04-16T03:54:57.313Z,100997.25
2023-04-16T04:00:02.972Z,101028.34
2023-04-16T04:05:19.106Z,101026.56
2023-04-16T04:10:24.175Z,101021.88
2023-04-16T04:15:27.311Z,101024.31
2023-04-16T04:20:30.831Z,101020.41
2023-04-16T04:25:34.080Z,101009.34
2023-04-16T04:30:36.749Z,100997.56
2023-04-16T04:35:44.111Z,101028.34
2023-04-16T04:40:47.677Z,101024.22
2023-04-16T04:45:52.707Z,101020.13
2023-04-16T04:50:59.679Z,101021.47
2023-04-16T04:56:12.122Z,101021.03
2023-04-16T05:01:25.081Z,101020.22
2023-04-16T05:06:29.606Z,101019.03
2023-04-16T05:11:34.812Z,101019.97
2023-04-16T05:16:38.348Z,101026.97
2023-04-16T05:21:41.451Z,101021.06
2023-04-16T05:26:50.489Z,101021.75
2023-04-16T05:31:53.446Z,101013.44
2023-04-16T05:37:01.109Z,101012.63
2023-04-16T05:42:03.959Z,100998.97
2023-04-16T05:47:09.609Z,100998.28
2023-04-16T05:52:15.617Z,100991.28
2023-04-16T05:57:20.605Z,100988.00
2023-04-16T06:02:26.614Z,100962.88
2023-04-16T06:07:29.799Z,100996.72
2023-04-16T06:12:44.731Z,100975.03
2023-04-16T06:17:50.032Z,100976.25
2023-04-16T06:23:00.145Z,100971.16
2023-04-16T06:28:06.247Z,100980.81
2023-04-16T06:33:09.162Z,100985.31
2023-04-16T06:38:15.675Z,100984.47
2023-04-16T06:43:18.523Z,100971.59
2023-04-16T06:48:30.340Z,100969.00
2023-04-16T06:53:36.743Z,100953.44
2023-04-16T06:58:39.748Z,100950.09
2023-04-16T07:03:44.583Z,100956.16
2023-04-16T07:08:49.758Z,100962.22
2023-04-16T07:13:56.587Z,100968.28
2023-04-16T07:19:11.588Z,100963.09
2023-04-16T07:24:14.457Z,100963.97
2023-04-16T07:29:17.136Z,100957.03
2023-04-16T07:34:20.164Z,100959.59
2023-04-16T07:39:23.644Z,100961.25
2023-04-16T07:44:26.909Z,100949.06
2023-04-16T07:49:29.660Z,100954.94
2023-04-16T07:54:32.432Z,100947.00
2023-04-16T07:59:35.069Z,100939.31
2023-04-16T08:04:37.990Z,100939.28
2023-04-16T08:09:52.118Z,100941.91
2023-04-16T08:14:54.852Z,100919.16
2023-04-16T08:19:58.217Z,100932.84
2023-04-16T08:25:01.118Z,100916.78
2023-04-16T08:30:04.536Z,100911.69
2023-04-16T08:35:07.516Z,100909.63
2023-04-16T08:40:10.484Z,100908.53
2023-04-16T08:45:18.468Z,100896.75
2023-04-16T08:50:26.175Z,100844.78
2023-04-16T08:55:39.439Z,100903.59
2023-04-16T09:00:43.764Z,100881.84
2023-04-16T09:05:47.334Z,100883.44
2023-04-16T09:10:51.013Z,100893.06
2023-04-16T09:15:54.441Z,100897.41
2023-04-16T09:20:57.746Z,100862.72
2023-04-16T09:26:00.547Z,100890.88
2023-04-16T09:31:21.912Z,100874.81
2023-04-16T09:36:24.649Z,100878.69
2023-04-16T09:41:32.045Z,100881.03
2023-04-16T09:46:36.551Z,100841.63
2023-04-16T09:51:42.114Z,100877.19
2023-04-16T09:56:46.613Z,100878.28
2023-04-16T10:01:50.652Z,100839.88
2023-04-16T10:07:05.226Z,100859.78
2023-04-16T10:12:07.960Z,100862.53
2023-04-16T10:17:10.941Z,100852.03
2023-04-16T10:22:14.014Z,100846.09
2023-04-16T10:27:17.294Z,100843.34
2023-04-16T10:32:21.959Z,100839.59
2023-04-16T10:37:31.432Z,100846.19
2023-04-16T10:42:34.732Z,100854.13
2023-04-16T10:47:40.388Z,100833.34
2023-04-16T10:52:43.098Z,100834.91
2023-04-16T10:57:50.005Z,100824.53
2023-04-16T11:02:55.713Z,100842.00
2023-04-16T11:08:14.558Z,100805.84
2023-04-16T11:13:18.954Z,100819.31
2023-04-16T11:18:21.695Z,100821.72
2023-04-16T11:23:24.322Z,100809.63
2023-04-16T11:28:34.643Z,100808.53
2023-04-16T11:33:38.213Z,100816.13
2023-04-16T11:38:43.613Z,100807.47
2023-04-16T11:43:46.195Z,100788.91
2023-04-16T11:48:49.808Z,100791.63
2023-04-16T11:53:53.815Z,100785.44
2023-04-16T11:59:13.228Z,100777.16
2023-04-16T12:04:19.380Z,100755.69
2023-04-16T12:09:27.473Z,100771.13
2023-04-16T12:14:30.852Z,100750.41
2023-04-16T12:19:33.654Z,100731.03
2023-04-16T12:24:37.438Z,100747.38
2023-04-16T12:29:40.185Z,100749.78
2023-04-16T12:34:52.074Z,100734.91
2023-04-16T12:39:55.222Z,100726.19
2023-04-16T12:44:57.907Z,100720.91
2023-04-16T12:50:00.807Z,100721.94
2023-04-16T12:55:03.521Z,100713.28
2023-04-16T13:00:07.011Z,100706.56
2023-04-16T13:05:10.302Z,100708.66
2023-04-16T13:10:15.075Z,100712.97
2023-04-16T13:15:18.171Z,100684.53
2023-04-16T13:20:22.448Z,100699.25
2023-04-16T13:25:26.658Z,100684.75
2023-04-16T13:30:29.665Z,100686.56
2023-04-16T13:35:32.396Z,100681.38
2023-04-16T13:40:35.057Z,100682.28
2023-04-16T13:45:38.555Z,100675.78
2023-04-16T13:50:41.322Z,100647.59
2023-04-16T13:55:44.337Z,100670.25
2023-04-16T14:00:47.409Z,100667.66
2023-04-16T14:05:50.046Z,100669.38
2023-04-16T14:10:53.946Z,100671.72
2023-04-16T14:15:58.414Z,100663.88
2023-04-16T14:21:02.324Z,100668.09
2023-04-16T14:26:05.103Z,100654.91
2023-04-16T14:31:07.706Z,100652.19
2023-04-16T14:36:10.476Z,100658.41
2023-04-16T14:41:13.320Z,100656.06
2023-04-16T14:46:17.907Z,100656.22
2023-04-16T14:51:20.702Z,100660.72
2023-04-16T14:56:23.471Z,100656.41
2023-04-16T15:01:26.325Z,100647.72
2023-04-16T15:06:29.022Z,100634.88
2023-04-16T15:11:31.689Z,100646.19
2023-04-16T15:16:34.478Z,100642.72
2023-04-16T15:21:37.205Z,100616.84
2023-04-16T15:26:40.045Z,100645.25
2023-04-16T15:31:42.980Z,100647.03
2023-04-16T15:36:45.725Z,100651.47
2023-04-16T15:42:00.632Z,100647.19
2023-04-16T15:47:06.492Z,100643.81
2023-04-16T15:52:12.115Z,100643.00
2023-04-16T15:57:14.778Z,100634.34
2023-04-16T16:02:17.548Z,100644.81
2023-04-16T16:07:20.714Z,100642.31
2023-04-16T16:12:23.635Z,100646.66
2023-04-16T16:17:26.412Z,100649.28
2023-04-16T16:22:29.942Z,100636.41
2023-04-16T16:27:32.631Z,100641.66
2023-04-16T16:32:35.548Z,100642.50
2023-04-16T16:37:38.955Z,100659.88
2023-04-16T16:42:41.622Z,100643.50
2023-04-16T16:47:44.360Z,100648.72
2023-04-16T16:52:47.068Z,100653.94
2023-04-16T16:57:50.255Z,100655.66
2023-04-16T17:02:53.379Z,100661.69
2023-04-16T17:07:56.057Z,100655.66
2023-04-16T17:12:58.778Z,100626.25
2023-04-16T17:18:01.695Z,100662.56
2023-04-16T17:23:04.466Z,100648.72
2023-04-16T17:28:07.100Z,100656.47
2023-04-16T17:33:09.908Z,100634.84
2023-04-16T17:38:12.689Z,100658.19
2023-04-16T17:43:15.369Z,100640.00
2023-04-16T17:48:18.105Z,100625.28
2023-04-16T17:53:21.480Z,100646.94
2023-04-16T17:58:26.310Z,100640.03
2023-04-16T18:03:29.763Z,100643.53
2023-04-16T18:08:33.924Z,100621.91
2023-04-16T18:13:40.149Z,100631.41
2023-04-16T18:18:44.112Z,100648.72
2023-04-16T18:23:46.911Z,100643.53
2023-04-16T18:28:49.564Z,100596.75
2023-04-16T18:39:02.048Z,100642.63
2023-04-16T18:44:05.361Z,100634.81
2023-04-16T18:49:08.174Z,100624.38
2023-04-16T18:54:11.283Z,100625.25
2023-04-16T18:59:14.007Z,100633.06
2023-04-16T19:04:17.215Z,100634.75
2023-04-16T19:09:20.160Z,100610.50
2023-04-16T19:14:22.807Z,100620.88
2023-04-16T19:19:25.591Z,100626.91
2023-04-16T19:24:28.121Z,100626.88
2023-04-16T19:29:34.573Z,100623.47
2023-04-16T19:34:37.286Z,100626.88
2023-04-16T19:39:39.959Z,100622.53
2023-04-16T19:44:42.569Z,100598.22
2023-04-16T19:49:46.593Z,100632.81
2023-04-16T19:54:49.676Z,100627.59
2023-04-16T19:59:54.048Z,100637.09
2023-04-16T20:04:57.776Z,100600.66
2023-04-16T20:10:00.408Z,100631.81
2023-04-16T20:15:03.188Z,100630.91
2023-04-16T20:20:14.154Z,100636.09
2023-04-16T20:25:19.406Z,100636.09
2023-04-16T20:30:24.603Z,100634.41
2023-04-16T20:35:27.279Z,100636.97
2023-04-16T20:40:30.456Z,100627.44
2023-04-16T20:45:38.321Z,100627.44
2023-04-16T20:50:40.946Z,100624.84
2023-04-16T20:55:43.854Z,100617.06
2023-04-16T21:00:51.522Z,100626.53
2023-04-16T21:05:55.560Z,100624.72
2023-04-16T21:10:58.431Z,100623.78
2023-04-16T21:16:01.304Z,100614.16
2023-04-16T21:21:04.278Z,100621.94
2023-04-16T21:26:07.031Z,100612.38
2023-04-16T21:31:09.895Z,100630.47
2023-04-16T21:36:12.532Z,100631.25
2023-04-16T21:41:15.128Z,100618.25
2023-04-16T21:46:17.881Z,100631.31
2023-04-16T21:51:29.070Z,100633.84
2023-04-16T21:56:31.845Z,100628.69
2023-04-16T22:01:34.523Z,100634.78
2023-04-16T22:06:37.432Z,100633.06
2023-04-16T22:11:40.860Z,100617.50
2023-04-16T22:16:44.973Z,100637.38
2023-04-16T22:21:48.713Z,100627.00
2023-04-16T22:26:51.336Z,100637.38
2023-04-16T22:31:55.267Z,100633.06
2023-04-16T22:36:58.157Z,100644.22
2023-04-16T22:42:00.885Z,100615.69
2023-04-16T22:47:03.687Z,100629.50
2023-04-16T22:52:06.415Z,100641.59
2023-04-16T22:57:09.114Z,100639.91
2023-04-16T23:02:11.969Z,100605.22
2023-04-16T23:07:16.526Z,100633.81
2023-04-16T23:12:19.109Z,100626.91
2023-04-16T23:17:21.766Z,100626.84
2023-04-16T23:22:24.474Z,100629.50
2023-04-16T23:27:27.126Z,100610.44
2023-04-16T23:32:29.861Z,100596.56
2023-04-16T23:37:32.546Z,100630.25
2023-04-16T23:42:35.235Z,100611.19
2023-04-16T23:47:38.191Z,100625.84
2023-04-16T23:52:41.139Z,100627.56
2023-04-16T23:57:43.766Z,100617.16
